createdAt,value
2019-01-10T00:00:44.345Z,1.30
2019-01-10T00:03:14.515Z,1.30
2019-01-10T00:05:44.151Z,1.30
2019-01-10T00:08:13.663Z,1.40
2019-01-10T00:10:43.080Z,1.40
2019-01-10T00:13:12.788Z,1.40
2019-01-10T00:15:42.180Z,1.40
2019-01-10T00:18:11.603Z,1.40
2019-01-10T00:20:41.118Z,1.30
2019-01-10T00:23:10.416Z,1.40
2019-01-10T00:25:39.839Z,1.40
2019-01-10T00:28:09.181Z,1.30
2019-01-10T00:30:38.599Z,1.30
2019-01-10T00:33:08.018Z,1.30
2019-01-10T00:35:37.503Z,1.30
2019-01-10T00:38:06.908Z,1.30
2019-01-10T00:40:36.310Z,1.30
2019-01-10T00:43:05.723Z,1.30
2019-01-10T00:45:35.067Z,1.30
2019-01-10T00:48:04.518Z,1.40
2019-01-10T00:50:33.907Z,1.30
2019-01-10T00:53:03.934Z,1.40
2019-01-10T00:55:33.336Z,1.40
2019-01-10T00:58:02.740Z,1.40
2019-01-10T01:00:33.058Z,1.30
2019-01-10T01:03:02.345Z,1.40
2019-01-10T01:05:31.728Z,1.40
2019-01-10T01:08:01.040Z,1.30
2019-01-10T01:10:30.448Z,1.40
2019-01-10T01:12:59.899Z,1.40
2019-01-10T01:15:29.204Z,1.40
2019-01-10T01:17:58.639Z,1.40
2019-01-10T01:20:28.035Z,1.40
2019-01-10T01:22:57.347Z,1.30
2019-01-10T01:25:26.856Z,1.30
2019-01-10T01:27:56.365Z,1.30
2019-01-10T01:30:26.207Z,1.30
2019-01-10T01:32:55.634Z,1.30
2019-01-10T01:35:25.070Z,1.30
2019-01-10T01:37:54.716Z,1.30
2019-01-10T01:40:24.124Z,1.30
2019-01-10T01:42:54.031Z,1.40
2019-01-10T01:45:23.454Z,1.30
2019-01-10T01:47:52.943Z,1.30
2019-01-10T01:50:24.111Z,1.30
2019-01-10T01:52:53.765Z,1.30
2019-01-10T01:55:23.196Z,1.30
2019-01-10T01:57:52.543Z,1.20
2019-01-10T02:00:23.307Z,1.30
2019-01-10T02:02:52.715Z,1.20
2019-01-10T02:05:22.175Z,1.20
2019-01-10T02:07:51.620Z,1.20
2019-01-10T02:10:26.113Z,1.20
2019-01-10T02:12:55.561Z,1.20
2019-01-10T02:15:24.892Z,1.20
2019-01-10T02:17:54.404Z,1.20
2019-01-10T02:20:23.879Z,1.30
2019-01-10T02:22:53.452Z,1.40
2019-01-10T02:25:23.839Z,1.40
2019-01-10T02:27:53.222Z,1.40
2019-01-10T02:30:23.623Z,1.50
2019-01-10T02:32:53.056Z,1.50
2019-01-10T02:35:22.472Z,1.50
2019-01-10T02:37:51.914Z,1.50
2019-01-10T02:40:21.376Z,1.50
2019-01-10T02:42:50.778Z,1.60
2019-01-10T02:45:20.345Z,1.50
2019-01-10T02:47:49.780Z,1.50
2019-01-10T02:50:22.196Z,1.50
2019-01-10T02:52:51.626Z,1.60
2019-01-10T02:55:21.003Z,1.50
2019-01-10T02:57:50.558Z,1.50
2019-01-10T03:00:22.080Z,1.50
2019-01-10T03:02:51.383Z,1.60
2019-01-10T03:05:20.904Z,1.50
2019-01-10T03:07:50.564Z,1.50
2019-01-10T03:10:22.846Z,1.60
2019-01-10T03:12:52.336Z,1.60
2019-01-10T03:15:21.741Z,1.70
2019-01-10T03:17:51.223Z,1.60
2019-01-10T03:20:22.248Z,1.70
2019-01-10T03:22:51.764Z,1.70
2019-01-10T03:25:21.079Z,1.60
2019-01-10T03:27:50.476Z,1.60
2019-01-10T03:30:20.420Z,1.70
2019-01-10T03:32:49.821Z,1.70
2019-01-10T03:35:19.223Z,1.70
2019-01-10T03:37:48.562Z,1.70
2019-01-10T03:40:19.799Z,1.70
2019-01-10T03:42:49.099Z,1.70
2019-01-10T03:45:19.811Z,1.70
2019-01-10T03:47:49.223Z,1.60
2019-01-10T03:50:18.706Z,1.60
2019-01-10T03:52:48.090Z,1.60
2019-01-10T03:55:17.450Z,1.60
2019-01-10T03:57:46.834Z,1.50
2019-01-10T04:00:21.374Z,1.50
2019-01-10T04:02:51.683Z,1.60
2019-01-10T04:05:21.101Z,1.60
2019-01-10T04:07:50.458Z,1.70
2019-01-10T04:10:19.763Z,1.70
2019-01-10T04:12:49.172Z,1.80
2019-01-10T04:15:18.563Z,1.80
2019-01-10T04:17:47.896Z,1.80
2019-01-10T04:20:18.089Z,1.80
2019-01-10T04:22:47.455Z,1.70
2019-01-10T04:25:17.043Z,1.80
2019-01-10T04:27:46.439Z,1.90
2019-01-10T04:30:17.960Z,1.80
2019-01-10T04:32:47.389Z,1.80
2019-01-10T04:35:16.771Z,1.80
2019-01-10T04:37:46.584Z,1.80
2019-01-10T04:40:17.932Z,1.70
2019-01-10T04:42:47.304Z,1.80
2019-01-10T04:45:16.772Z,1.80
2019-01-10T04:47:46.228Z,1.90
2019-01-10T04:50:15.699Z,1.80
2019-01-10T04:52:45.219Z,1.90
2019-01-10T04:55:14.647Z,1.80
2019-01-10T04:57:44.122Z,1.80
2019-01-10T05:00:16.929Z,1.80
2019-01-10T05:02:46.824Z,1.90
2019-01-10T05:05:16.705Z,1.90
2019-01-10T05:07:46.113Z,1.90
2019-01-10T05:10:15.590Z,1.80
2019-01-10T05:12:44.991Z,1.90
2019-01-10T05:15:15.943Z,1.80
2019-01-10T05:17:45.370Z,1.20
2019-01-10T05:20:17.423Z,1.80
2019-01-10T05:22:47.551Z,1.70
2019-01-10T05:25:16.961Z,1.70
2019-01-10T05:27:46.288Z,1.70
2019-01-10T05:30:18.485Z,1.80
2019-01-10T05:32:49.502Z,1.70
2019-01-10T05:35:18.928Z,1.70
2019-01-10T05:37:48.235Z,1.70
2019-01-10T05:40:17.533Z,1.70
2019-01-10T05:42:46.946Z,1.60
2019-01-10T05:45:17.827Z,1.60
2019-01-10T05:47:47.221Z,1.50
2019-01-10T05:50:18.008Z,1.50
2019-01-10T05:52:47.605Z,1.30
2019-01-10T05:55:18.635Z,1.20
2019-01-10T05:57:48.058Z,1.20
2019-01-10T06:00:25.029Z,1.20
2019-01-10T06:02:54.831Z,1.20
2019-01-10T06:05:25.092Z,1.20
2019-01-10T06:07:54.532Z,1.00
2019-01-10T06:10:26.538Z,1.10
2019-01-10T06:12:55.895Z,1.00
2019-01-10T06:15:25.250Z,1.10
2019-01-10T06:17:54.867Z,1.10
2019-01-10T06:20:24.783Z,1.00
2019-01-10T06:22:54.256Z,1.00
2019-01-10T06:25:23.565Z,1.00
2019-01-10T06:27:53.028Z,1.00
2019-01-10T06:30:23.195Z,1.00
2019-01-10T06:32:52.605Z,1.10
2019-01-10T06:35:22.103Z,1.00
2019-01-10T06:37:51.530Z,0.90
2019-01-10T06:40:21.319Z,0.90
2019-01-10T06:42:50.927Z,0.80
2019-01-10T06:45:20.284Z,0.80
2019-01-10T06:47:50.153Z,0.80
2019-01-10T06:50:19.459Z,0.80
2019-01-10T06:52:50.301Z,0.80
2019-01-10T06:55:19.662Z,0.70
2019-01-10T06:57:49.057Z,0.70
2019-01-10T07:00:20.997Z,0.70
2019-01-10T07:02:50.454Z,0.60
2019-01-10T07:05:19.938Z,0.70
2019-01-10T07:07:56.262Z,0.70
2019-01-10T07:10:22.966Z,0.70
2019-01-10T07:12:52.309Z,0.70
2019-01-10T07:15:21.697Z,0.70
2019-01-10T07:17:51.260Z,0.80
2019-01-10T07:20:20.661Z,1.00
2019-01-10T07:22:52.270Z,0.80
2019-01-10T07:25:21.681Z,0.90
2019-01-10T07:27:50.977Z,0.80
2019-01-10T07:30:23.093Z,0.90
2019-01-10T07:32:53.584Z,0.90
2019-01-10T07:35:22.896Z,0.80
2019-01-10T07:37:53.882Z,0.80
2019-01-10T07:40:23.178Z,0.70
2019-01-10T07:42:52.589Z,0.70
2019-01-10T07:45:23.494Z,0.70
2019-01-10T07:47:52.919Z,0.70
2019-01-10T07:50:27.729Z,0.70
2019-01-10T07:52:57.119Z,0.70
2019-01-10T07:55:26.538Z,0.70
2019-01-10T07:57:57.023Z,0.70
2019-01-10T08:00:26.538Z,0.70
2019-01-10T08:02:56.104Z,0.60
2019-01-10T08:05:25.549Z,0.70
2019-01-10T08:07:55.328Z,0.70
2019-01-10T08:10:24.830Z,0.80
2019-01-10T08:12:54.364Z,0.80
2019-01-10T08:15:23.900Z,0.80
2019-01-10T08:17:53.272Z,0.70
2019-01-10T08:20:23.771Z,0.80
2019-01-10T08:22:53.135Z,0.70
2019-01-10T08:25:22.534Z,0.80
2019-01-10T08:27:51.981Z,0.80
2019-01-10T08:30:22.543Z,0.80
2019-01-10T08:32:51.940Z,0.80
2019-01-10T08:35:22.599Z,0.90
2019-01-10T08:37:51.989Z,0.90
2019-01-10T08:40:21.432Z,1.00
2019-01-10T08:42:50.978Z,1.00
2019-01-10T08:45:21.743Z,1.00
2019-01-10T08:47:51.602Z,1.00
2019-01-10T08:50:23.096Z,1.10
2019-01-10T08:52:52.734Z,1.20
2019-01-10T08:55:22.047Z,1.30
2019-01-10T08:57:51.422Z,1.50
2019-01-10T09:00:21.541Z,1.50
2019-01-10T09:02:50.991Z,1.70
2019-01-10T09:05:20.440Z,1.50
2019-01-10T09:07:50.899Z,1.50
2019-01-10T09:10:22.488Z,1.30
2019-01-10T09:12:52.477Z,1.20
2019-01-10T09:15:25.400Z,1.10
2019-01-10T09:17:53.956Z,1.10
2019-01-10T09:20:23.373Z,1.10
2019-01-10T09:22:52.820Z,1.10
2019-01-10T09:25:22.311Z,1.00
2019-01-10T09:27:51.636Z,1.00
2019-01-10T09:30:21.485Z,0.90
2019-01-10T09:32:50.860Z,0.90
2019-01-10T09:35:20.467Z,0.90
2019-01-10T09:37:51.114Z,0.90
2019-01-10T09:40:21.869Z,0.80
2019-01-10T09:42:51.478Z,0.80
2019-01-10T09:45:22.466Z,0.90
2019-01-10T09:50:22.475Z,1.30
2019-01-10T09:55:21.211Z,1.10
2019-01-10T09:57:50.639Z,2.40
2019-01-10T10:00:25.284Z,1.50
2019-01-10T10:02:54.770Z,1.30
2019-01-10T10:07:53.281Z,2.10
2019-01-10T10:15:21.275Z,1.10
2019-01-10T10:22:50.812Z,0.70
2019-01-10T10:35:17.697Z,0.80
2019-01-10T10:42:46.566Z,0.70
2019-01-10T10:45:17.557Z,0.90
2019-01-10T10:47:46.968Z,1.00
2019-01-10T10:50:19.411Z,0.90
2019-01-10T10:52:48.902Z,1.00
2019-01-10T10:57:47.481Z,2.10
2019-01-10T11:00:20.298Z,1.30
2019-01-10T11:02:49.685Z,1.30
2019-01-10T11:05:19.086Z,1.00
2019-01-10T11:07:49.857Z,1.20
2019-01-10T11:10:20.344Z,1.40
2019-01-10T11:12:49.987Z,1.30
2019-01-10T11:15:19.502Z,1.30
2019-01-10T11:17:48.884Z,1.20
2019-01-10T11:20:20.181Z,0.90
2019-01-10T11:22:50.006Z,1.00
2019-01-10T11:25:21.779Z,0.90
2019-01-10T11:27:51.227Z,0.90
2019-01-10T11:30:20.917Z,0.90
2019-01-10T11:32:50.242Z,1.00
2019-01-10T11:35:19.707Z,1.00
2019-01-10T11:37:49.668Z,1.10
2019-01-10T11:40:20.779Z,1.00
2019-01-10T11:42:50.180Z,1.00
2019-01-10T11:45:21.483Z,0.90
2019-01-10T11:47:50.942Z,0.80
2019-01-10T11:50:20.235Z,0.70
2019-01-10T11:52:50.140Z,0.60
2019-01-10T11:55:19.641Z,0.90
2019-01-10T11:57:49.286Z,0.80
2019-01-10T12:00:27.357Z,0.70
2019-01-10T12:02:56.983Z,0.70
2019-01-10T12:05:26.353Z,0.80
2019-01-10T12:07:55.745Z,0.80
2019-01-10T12:15:24.253Z,0.90
2019-01-10T12:22:51.951Z,0.60
2019-01-10T12:25:21.501Z,0.80
2019-01-10T12:27:50.897Z,0.80
2019-01-10T12:30:22.258Z,0.90
2019-01-10T12:32:51.773Z,0.90
2019-01-10T12:35:21.250Z,0.90
2019-01-10T12:37:51.389Z,0.80
2019-01-10T12:42:49.759Z,0.80
2019-01-10T12:45:20.469Z,0.90
2019-01-10T12:47:49.860Z,0.90
2019-01-10T12:50:24.037Z,0.80
2019-01-10T12:52:53.670Z,0.70
2019-01-10T12:55:23.098Z,0.70
2019-01-10T12:57:52.660Z,0.70
2019-01-10T13:00:24.586Z,0.70
2019-01-10T13:02:55.765Z,0.70
2019-01-10T13:05:25.176Z,0.70
2019-01-10T13:08:03.124Z,0.70
2019-01-10T13:10:25.804Z,0.70
2019-01-10T13:12:55.214Z,0.60
2019-01-10T13:15:25.849Z,0.60
2019-01-10T13:17:55.249Z,0.60
2019-01-10T13:20:24.843Z,0.50
2019-01-10T13:22:55.354Z,0.50
2019-01-10T13:25:24.874Z,0.60
2019-01-10T13:27:54.519Z,0.50
2019-01-10T13:30:25.561Z,0.50
2019-01-10T13:32:55.288Z,0.50
2019-01-10T13:35:24.909Z,0.50
2019-01-10T13:37:54.784Z,0.50
2019-01-10T13:40:24.317Z,0.60
2019-01-10T13:42:53.819Z,0.50
2019-01-10T13:45:23.223Z,0.50
2019-01-10T13:47:54.546Z,0.40
2019-01-10T13:50:26.161Z,0.50
2019-01-10T13:52:55.542Z,0.50
2019-01-10T13:55:25.096Z,0.40
2019-01-10T13:57:54.461Z,0.40
2019-01-10T14:00:28.544Z,0.30
2019-01-10T14:02:57.944Z,0.20
2019-01-10T14:05:27.475Z,0.30
2019-01-10T14:07:57.159Z,0.20
2019-01-10T14:10:26.637Z,0.20
2019-01-10T14:12:56.991Z,0.20
2019-01-10T14:15:28.247Z,0.20
2019-01-10T14:17:57.778Z,0.20
2019-01-10T14:20:27.392Z,0.10
2019-01-10T14:22:56.767Z,0.10
2019-01-10T14:25:26.478Z,0.10
2019-01-10T14:27:59.577Z,0.00
2019-01-10T14:30:29.762Z,0.00
2019-01-10T14:32:59.212Z,0.00
2019-01-10T14:35:28.998Z,0.00
2019-01-10T14:37:58.380Z,0.00
2019-01-10T14:40:27.831Z,0.00
2019-01-10T14:42:57.297Z,0.00
2019-01-10T14:45:26.686Z,0.00
2019-01-10T14:48:01.746Z,-0.10
2019-01-10T14:50:27.679Z,-0.20
2019-01-10T14:52:57.316Z,-0.20
2019-01-10T14:55:26.793Z,-0.30
2019-01-10T15:00:26.028Z,-0.30
2019-01-10T15:02:55.642Z,-0.30
2019-01-10T15:05:24.967Z,-0.30
2019-01-10T15:07:54.422Z,-0.30
2019-01-10T15:10:24.004Z,-0.30
2019-01-10T15:12:53.763Z,-0.30
2019-01-10T15:15:23.688Z,-0.30
2019-01-10T15:17:53.106Z,-0.30
2019-01-10T15:20:27.444Z,-0.40
2019-01-10T15:22:56.931Z,-0.40
2019-01-10T15:25:26.343Z,-0.40
2019-01-10T15:27:56.812Z,-1.00
2019-01-10T15:32:56.501Z,-0.50
2019-01-10T15:35:25.863Z,-0.40
2019-01-10T15:37:55.451Z,-0.40
2019-01-10T15:40:27.048Z,-0.50
2019-01-10T15:42:56.497Z,-0.40
2019-01-10T15:45:25.829Z,-0.50
2019-01-10T15:47:55.277Z,-0.60
2019-01-10T15:50:24.651Z,-0.60
2019-01-10T15:52:54.303Z,-0.70
2019-01-10T15:55:23.892Z,-0.70
2019-01-10T15:57:53.324Z,-0.60
2019-01-10T16:00:24.161Z,-0.60
2019-01-10T16:02:53.675Z,-0.50
2019-01-10T16:05:23.008Z,-0.50
2019-01-10T16:07:52.554Z,-0.60
2019-01-10T16:10:21.917Z,-0.70
2019-01-10T16:12:51.501Z,-0.60
2019-01-10T16:15:22.620Z,-0.60
2019-01-10T16:17:53.244Z,-0.60
2019-01-10T16:20:22.581Z,-0.60
2019-01-10T16:22:51.997Z,-0.60
2019-01-10T16:25:21.329Z,-0.60
2019-01-10T16:27:50.673Z,-0.60
2019-01-10T16:30:23.014Z,-0.70
2019-01-10T16:32:52.512Z,-0.80
2019-01-10T16:35:21.890Z,-0.90
2019-01-10T16:37:51.247Z,-0.90
2019-01-10T16:40:20.544Z,-0.90
2019-01-10T16:42:49.847Z,-1.10
2019-01-10T16:45:21.597Z,-1.00
2019-01-10T16:47:51.021Z,-1.10
2019-01-10T16:50:20.390Z,-1.20
2019-01-10T16:52:49.795Z,-1.10
2019-01-10T16:55:19.090Z,-1.10
2019-01-10T16:57:48.401Z,-1.30
2019-01-10T17:00:23.597Z,-1.30
2019-01-10T17:02:52.902Z,-1.20
2019-01-10T17:05:22.294Z,-1.10
2019-01-10T17:07:51.688Z,-1.10
2019-01-10T17:10:21.095Z,-1.10
2019-01-10T17:12:50.476Z,-1.00
2019-01-10T17:15:21.514Z,-1.00
2019-01-10T17:17:51.040Z,-1.00
2019-01-10T17:20:25.299Z,-1.10
2019-01-10T17:22:54.749Z,-1.20
2019-01-10T17:25:24.207Z,-1.20
2019-01-10T17:27:53.688Z,-1.20
2019-01-10T17:30:25.036Z,-1.30
2019-01-10T17:32:54.487Z,-1.30
2019-01-10T17:35:28.743Z,-1.20
2019-01-10T17:37:58.257Z,-1.30
2019-01-10T17:40:27.595Z,-1.30
2019-01-10T17:42:57.391Z,-1.40
2019-01-10T17:45:29.402Z,-1.40
2019-01-10T17:47:58.779Z,-1.30
2019-01-10T17:50:28.228Z,-1.30
2019-01-10T17:52:57.545Z,-1.30
2019-01-10T17:55:27.074Z,-1.30
2019-01-10T17:57:56.607Z,-1.30
2019-01-10T18:00:28.240Z,-1.30
2019-01-10T18:02:58.014Z,-1.30
2019-01-10T18:05:27.636Z,-1.40
2019-01-10T18:07:57.611Z,-1.40
2019-01-10T18:10:27.167Z,-1.40
2019-01-10T18:12:57.833Z,-1.40
2019-01-10T18:15:27.479Z,-1.40
2019-01-10T18:17:57.094Z,-1.40
2019-01-10T18:20:30.000Z,-1.50
2019-01-10T18:22:59.696Z,-1.30
2019-01-10T18:25:29.437Z,-1.40
2019-01-10T18:27:58.998Z,-1.50
2019-01-10T18:30:29.485Z,-1.50
2019-01-10T18:32:59.447Z,-1.50
2019-01-10T18:35:28.995Z,-1.50
2019-01-10T18:37:58.442Z,-1.50
2019-01-10T18:40:28.154Z,-1.50
2019-01-10T18:42:57.482Z,-1.50
2019-01-10T18:45:29.314Z,-1.60
2019-01-10T18:47:58.688Z,-1.60
2019-01-10T18:50:28.149Z,-1.60
2019-01-10T18:52:57.565Z,-1.60
2019-01-10T18:55:27.125Z,-1.50
2019-01-10T18:57:56.458Z,-1.60
2019-01-10T19:00:28.437Z,-1.50
2019-01-10T19:02:58.475Z,-1.50
2019-01-10T19:05:28.135Z,-1.50
2019-01-10T19:07:57.989Z,-1.50
2019-01-10T19:10:27.919Z,-1.50
2019-01-10T19:12:57.783Z,-1.50
2019-01-10T19:15:27.258Z,-1.60
2019-01-10T19:17:56.587Z,-1.60
2019-01-10T19:20:27.416Z,-1.50
2019-01-10T19:22:57.745Z,-1.50
2019-01-10T19:25:27.628Z,-1.70
2019-01-10T19:27:57.160Z,-1.60
2019-01-10T19:30:29.035Z,-1.60
2019-01-10T19:32:58.519Z,-1.60
2019-01-10T19:35:28.040Z,-1.70
2019-01-10T19:37:57.540Z,-1.70
2019-01-10T19:40:27.047Z,-1.70
2019-01-10T19:42:56.355Z,-1.80
2019-01-10T19:45:26.217Z,-1.70
2019-01-10T19:47:56.076Z,-1.70
2019-01-10T19:50:26.460Z,-1.70
2019-01-10T19:52:56.019Z,-1.70
2019-01-10T19:55:25.616Z,-1.80
2019-01-10T19:57:55.286Z,-1.80
2019-01-10T20:00:30.445Z,-1.80
2019-01-10T20:03:00.082Z,-1.90
2019-01-10T20:05:29.815Z,-2.00
2019-01-10T20:08:00.530Z,-1.90
2019-01-10T20:10:30.315Z,-1.90
2019-01-10T20:12:59.965Z,-1.80
2019-01-10T20:15:30.571Z,-1.80
2019-01-10T20:18:00.295Z,-1.80
2019-01-10T20:20:35.865Z,-1.80
2019-01-10T20:23:07.263Z,-1.90
2019-01-10T20:25:37.757Z,-1.70
2019-01-10T20:28:07.141Z,-1.80
2019-01-10T20:30:36.862Z,-1.70
2019-01-10T20:33:06.774Z,-1.70
2019-01-10T20:35:36.345Z,-1.70
2019-01-10T20:38:05.704Z,-1.80
2019-01-10T20:40:35.207Z,-1.80
2019-01-10T20:43:06.432Z,-1.90
2019-01-10T20:45:35.866Z,-2.00
2019-01-10T20:48:05.584Z,-2.00
2019-01-10T20:50:35.294Z,-1.90
2019-01-10T20:53:05.203Z,-1.80
2019-01-10T20:55:34.647Z,-2.00
2019-01-10T20:58:04.208Z,-2.10
2019-01-10T21:00:33.641Z,-2.10
2019-01-10T21:03:03.080Z,-2.00
2019-01-10T21:05:32.636Z,-2.00
2019-01-10T21:08:02.181Z,-1.90
2019-01-10T21:10:31.751Z,-2.00
2019-01-10T21:13:01.316Z,-2.00
2019-01-10T21:15:30.700Z,-2.00
2019-01-10T21:18:00.332Z,-2.10
2019-01-10T21:20:29.868Z,-2.20
2019-01-10T21:22:59.658Z,-2.30
2019-01-10T21:25:29.975Z,-2.30
2019-01-10T21:28:00.825Z,-2.20
2019-01-10T21:30:30.254Z,-2.20
2019-01-10T21:32:59.632Z,-2.20
2019-01-10T21:35:30.215Z,-2.10
2019-01-10T21:38:00.087Z,-2.10
2019-01-10T21:40:31.456Z,-2.10
2019-01-10T21:43:02.104Z,-2.20
2019-01-10T21:45:32.408Z,-2.20
2019-01-10T21:48:02.543Z,-2.20
2019-01-10T21:50:31.916Z,-2.10
2019-01-10T21:53:01.443Z,-2.20
2019-01-10T21:55:30.902Z,-2.10
2019-01-10T21:58:00.498Z,-2.20
2019-01-10T22:00:31.621Z,-2.10
2019-01-10T22:03:01.746Z,-2.00
2019-01-10T22:05:31.329Z,-2.10
2019-01-10T22:08:01.971Z,-2.10
2019-01-10T22:10:32.291Z,-2.10
2019-01-10T22:13:01.860Z,-2.10
2019-01-10T22:15:31.290Z,-2.00
2019-01-10T22:18:00.841Z,-2.00
2019-01-10T22:20:30.401Z,-2.00
2019-01-10T22:22:59.831Z,-2.00
2019-01-10T22:25:29.317Z,-2.00
2019-01-10T22:27:58.915Z,-2.00
2019-01-10T22:30:28.597Z,-2.10
2019-01-10T22:32:58.258Z,-2.20
2019-01-10T22:35:28.232Z,-2.20
2019-01-10T22:37:57.907Z,-2.20
2019-01-10T22:40:27.439Z,-2.20
2019-01-10T22:42:57.139Z,-2.10
2019-01-10T22:45:27.798Z,-2.10
2019-01-10T22:47:57.440Z,-2.20
2019-01-10T22:50:26.827Z,-2.10
2019-01-10T22:52:56.359Z,-2.10
2019-01-10T22:55:25.855Z,-2.10
2019-01-10T22:57:55.340Z,-2.10
2019-01-10T23:00:41.887Z,-2.10
2019-01-10T23:03:11.290Z,-2.10
2019-01-10T23:05:45.034Z,-2.00
2019-01-10T23:08:14.314Z,-2.00
2019-01-10T23:10:43.634Z,-2.10
2019-01-10T23:13:13.547Z,-2.10
2019-01-10T23:15:44.185Z,-2.10
2019-01-10T23:18:13.833Z,-2.10
2019-01-10T23:20:43.371Z,-2.10
2019-01-10T23:23:13.393Z,-2.10
2019-01-10T23:25:42.956Z,-2.20
2019-01-10T23:28:12.751Z,-2.30
2019-01-10T23:30:52.744Z,-2.30
2019-01-10T23:33:22.460Z,-2.30
2019-01-10T23:35:57.238Z,-2.20
2019-01-10T23:38:26.714Z,-2.30
2019-01-10T23:40:56.288Z,-2.30
2019-01-10T23:43:25.777Z,-2.30
2019-01-10T23:45:55.072Z,-2.30
2019-01-10T23:48:24.550Z,-2.40
2019-01-10T23:50:53.901Z,-2.30
2019-01-10T23:53:23.323Z,-2.30
2019-01-10T23:55:52.788Z,-2.40
2019-01-10T23:58:22.847Z,-2.30
